Time;durP1;ratioP1;P1;durP2;ratioP2;P2;SDS_P1;SDS_P2;PMS_P1;PMS_P2;Temp;Humidity;BMP_temperature;BMP_pressure;BME280_temperature;BME280_humidity;BME280_pressure;Samples;Min_cycle;Max_cycle;Signal;HPM_P1;HPM_P2
2022/12/10 00:01:44;;;;;;;;;;;0.30;99.90;;;;;;8382801;28;20039;-72
2022/12/10 00:05:45;;;;;;;;;;;0.40;99.90;;;;;;8369003;28;19970;-71
2022/12/10 00:09:47;;;;;;;;;;;0.40;99.90;;;;;;8370547;28;20011;-71
2022/12/10 00:13:49;;;;;;;;;;;0.50;99.90;;;;;;8390039;28;19924;-71
2022/12/10 00:17:51;;;;;;;;;;;0.50;99.90;;;;;;8387891;28;19925;-71
2022/12/10 00:21:53;;;;;;;;;;;0.50;99.90;;;;;;8386985;28;20095;-71
2022/12/10 00:25:54;;;;;;;;;;;0.50;99.90;;;;;;8376802;28;19975;-71
2022/12/10 00:40:07;;;;;;;;;;;0.50;99.90;;;;;;8369389;28;20018;-72
2022/12/10 00:59:32;;;;;;;;;;;0.50;99.90;;;;;;8347246;28;19944;-71
2022/12/10 01:03:33;;;;;;;;;;;0.40;99.90;;;;;;8349893;28;19972;-70
2022/12/10 01:07:35;;;;;;;;;;;0.40;99.90;;;;;;8357208;28;19972;-69
2022/12/10 01:11:38;;;;;;;;;;;0.40;99.90;;;;;;8354205;28;20388;-69
2022/12/10 01:15:39;;;;;;;;;;;0.40;99.90;;;;;;8350940;28;19925;-69
2022/12/10 01:19:41;;;;;;;;;;;0.40;99.90;;;;;;8350485;28;19931;-69
2022/12/10 01:23:43;;;;;;;;;;;0.40;99.90;;;;;;8347246;28;20024;-70
2022/12/10 01:27:45;;;;;;;;;;;0.40;99.90;;;;;;8349470;28;19936;-69
2022/12/10 01:31:50;;;;;;;;;;;0.40;99.90;;;;;;8354386;28;19968;-69
2022/12/10 01:35:51;;;;;;;;;;;0.40;99.90;;;;;;8365778;28;19960;-69
2022/12/10 01:39:53;;;;;;;;;;;0.40;99.90;;;;;;8349710;28;20012;-70
2022/12/10 01:44:03;;;;;;;;;;;0.30;99.90;;;;;;8385226;28;19942;-69
2022/12/10 01:48:04;;;;;;;;;;;0.30;99.90;;;;;;8386589;28;20387;-70
2022/12/10 01:52:09;;;;;;;;;;;0.30;99.90;;;;;;8385086;28;19929;-69
2022/12/10 01:56:11;;;;;;;;;;;0.20;99.90;;;;;;8361289;28;19925;-69
2022/12/10 02:00:13;;;;;;;;;;;0.20;99.90;;;;;;8376379;28;19947;-70
2022/12/10 02:04:21;;;;;;;;;;;0.10;99.90;;;;;;8385638;28;20121;-69
2022/12/10 02:08:30;;;;;;;;;;;0.20;99.90;;;;;;8385513;28;19973;-69
2022/12/10 02:12:39;;;;;;;;;;;0.20;99.90;;;;;;8396502;28;19925;-70
2022/12/10 02:16:44;;;;;;;;;;;0.20;99.90;;;;;;8368524;28;20311;-70
2022/12/10 02:20:51;;;;;;;;;;;0.20;99.90;;;;;;8378601;28;19973;-69
2022/12/10 02:24:54;;;;;;;;;;;0.20;99.90;;;;;;8358250;28;22022;-69
2022/12/10 02:29:12;;;;;;;;;;;0.20;99.90;;;;;;8375563;28;19925;-69
2022/12/10 02:33:16;;;;;;;;;;;0.20;99.90;;;;;;8384160;28;20022;-69
2022/12/10 02:37:20;;;;;;;;;;;0.20;99.90;;;;;;8379203;28;19928;-71
2022/12/10 02:41:24;;;;;;;;;;;0.10;99.90;;;;;;8382345;28;19932;-71
2022/12/10 02:45:28;;;;;;;;;;;0.10;99.90;;;;;;8382528;28;20034;-71
2022/12/10 02:49:30;;;;;;;;;;;0.10;99.90;;;;;;8366735;28;19935;-71
2022/12/10 02:53:31;;;;;;;;;;;0.10;99.90;;;;;;8384834;28;20306;-71
2022/12/10 02:57:33;;;;;;;;;;;0.00;99.90;;;;;;8363126;28;19978;-71
2022/12/10 03:01:35;;;;;;;;;;;0.00;99.90;;;;;;8376658;28;19931;-72
2022/12/10 03:05:42;;;;;;;;;;;0.00;99.90;;;;;;8359541;28;19924;-71
2022/12/10 03:09:51;;;;;;;;;;;0.00;99.90;;;;;;8372656;28;19924;-71
2022/12/10 03:14:11;;;;;;;;;;;0.00;99.90;;;;;;8379674;28;19932;-71
2022/12/10 03:23:22;;;;;;;;;;;0.00;99.90;;;;;;8384941;28;19970;-71
2022/12/10 03:27:24;;;;;;;;;;;-0.10;99.90;;;;;;8383971;28;20368;-71
2022/12/10 03:31:26;;;;;;;;;;;-0.10;99.90;;;;;;8366969;28;19973;-71
2022/12/10 03:35:27;;;;;;;;;;;-0.10;99.90;;;;;;8379364;28;20015;-71
2022/12/10 03:39:29;;;;;;;;;;;-0.10;99.90;;;;;;8383294;28;19932;-71
2022/12/10 03:43:31;;;;;;;;;;;-0.10;99.90;;;;;;8367316;28;19932;-71
2022/12/10 03:47:32;;;;;;;;;;;-0.10;99.90;;;;;;8387305;28;20279;-71
2022/12/10 03:51:34;;;;;;;;;;;-0.10;99.90;;;;;;8383974;28;20291;-71
2022/12/10 03:55:36;;;;;;;;;;;-0.10;99.90;;;;;;8386396;28;19931;-72
2022/12/10 03:59:37;;;;;;;;;;;0.00;99.90;;;;;;8382936;28;19925;-71
2022/12/10 04:03:40;;;;;;;;;;;0.00;99.90;;;;;;8394723;28;19930;-71
2022/12/10 04:07:42;;;;;;;;;;;0.00;99.90;;;;;;8386577;28;19929;-71
2022/12/10 04:11:44;;;;;;;;;;;-0.10;99.90;;;;;;8370008;28;20376;-71
2022/12/10 04:26:51;;;;;;;;;;;-0.10;99.90;;;;;;8394058;28;19931;-71
2022/12/10 04:28:48;;;;;;;;;;;-0.10;99.90;;;;;;8387263;28;19974;-71
2022/12/10 04:32:50;;;;;;;;;;;-0.10;99.90;;;;;;8391668;28;20031;-71
2022/12/10 04:36:52;;;;;;;;;;;-0.10;99.90;;;;;;8383434;28;20365;-71
2022/12/10 04:40:53;;;;;;;;;;;0.00;99.90;;;;;;8389283;28;19932;-71
2022/12/10 04:44:55;;;;;;;;;;;0.00;99.90;;;;;;8392441;28;19924;-71
2022/12/10 04:48:57;;;;;;;;;;;0.00;99.90;;;;;;8389827;28;20511;-71
2022/12/10 04:52:58;;;;;;;;;;;0.00;99.90;;;;;;8389685;28;19929;-69
2022/12/10 04:57:00;;;;;;;;;;;0.00;99.90;;;;;;8384919;28;20041;-69
2022/12/10 05:01:05;;;;;;;;;;;0.00;99.90;;;;;;8369541;28;19925;-70
2022/12/10 05:05:07;;;;;;;;;;;0.00;99.90;;;;;;8385049;28;20383;-69
2022/12/10 05:09:12;;;;;;;;;;;0.00;99.90;;;;;;8379452;28;20338;-69
2022/12/10 05:13:14;;;;;;;;;;;0.00;99.90;;;;;;8377972;28;19940;-70
2022/12/10 05:17:15;;;;;;;;;;;0.00;99.90;;;;;;8382085;28;19931;-69
2022/12/10 05:21:18;;;;;;;;;;;0.00;99.90;;;;;;8383776;28;19929;-69
2022/12/10 05:25:20;;;;;;;;;;;0.00;99.90;;;;;;8367034;28;20281;-69
2022/12/10 05:29:21;;;;;;;;;;;0.00;99.90;;;;;;8388662;28;19968;-69
2022/12/10 05:33:23;;;;;;;;;;;0.00;99.90;;;;;;8381928;28;20406;-69
2022/12/10 05:37:27;;;;;;;;;;;0.00;99.90;;;;;;8377090;28;22171;-69
2022/12/10 05:41:30;;;;;;;;;;;-0.10;99.90;;;;;;8354285;28;19970;-70
2022/12/10 05:45:32;;;;;;;;;;;-0.10;99.90;;;;;;8385503;28;19935;-69
2022/12/10 05:49:34;;;;;;;;;;;-0.20;99.90;;;;;;8386249;28;19924;-71
2022/12/10 05:53:36;;;;;;;;;;;-0.20;99.90;;;;;;8375122;28;20299;-71
2022/12/10 05:57:37;;;;;;;;;;;-0.30;99.90;;;;;;8368374;28;19932;-71
2022/12/10 06:01:39;;;;;;;;;;;-0.30;99.90;;;;;;8355894;28;20040;-72
2022/12/10 06:05:41;;;;;;;;;;;-0.30;99.90;;;;;;8362869;28;19928;-71
2022/12/10 06:09:42;;;;;;;;;;;-0.30;99.90;;;;;;8387367;28;19924;-72
2022/12/10 06:13:44;;;;;;;;;;;-0.30;99.90;;;;;;8361498;28;19932;-71
2022/12/10 06:17:46;;;;;;;;;;;-0.30;99.90;;;;;;8377901;28;19928;-71
2022/12/10 06:21:47;;;;;;;;;;;-0.30;99.90;;;;;;8366521;28;20329;-72
2022/12/10 06:25:49;;;;;;;;;;;-0.30;99.90;;;;;;8377589;28;20451;-71
2022/12/10 06:29:51;;;;;;;;;;;-0.30;99.90;;;;;;8369555;28;19928;-71
2022/12/10 06:33:53;;;;;;;;;;;-0.40;99.90;;;;;;8383700;28;19967;-71
2022/12/10 06:37:55;;;;;;;;;;;-0.40;99.90;;;;;;8371300;28;19925;-71
2022/12/10 06:41:57;;;;;;;;;;;-0.40;99.90;;;;;;8376785;28;20320;-71
2022/12/10 06:46:04;;;;;;;;;;;-0.40;99.90;;;;;;8372207;28;19925;-71
2022/12/10 06:50:06;;;;;;;;;;;-0.30;99.90;;;;;;8390918;28;19925;-71
2022/12/10 06:54:08;;;;;;;;;;;-0.30;99.90;;;;;;8386049;28;19931;-71
2022/12/10 06:58:09;;;;;;;;;;;-0.30;99.90;;;;;;8369212;28;20011;-71
2022/12/10 07:02:11;;;;;;;;;;;-0.40;99.90;;;;;;8360034;28;20018;-71
2022/12/10 07:06:13;;;;;;;;;;;-0.40;99.90;;;;;;8367181;28;19932;-71
2022/12/10 07:10:14;;;;;;;;;;;-0.50;99.90;;;;;;8377611;28;20292;-71
2022/12/10 07:14:16;;;;;;;;;;;-0.50;99.90;;;;;;8368022;28;19938;-71
2022/12/10 07:18:18;;;;;;;;;;;-0.50;99.90;;;;;;8375784;28;19936;-71
2022/12/10 07:22:20;;;;;;;;;;;-0.50;99.90;;;;;;8360112;28;19956;-71
2022/12/10 07:26:22;;;;;;;;;;;-0.50;99.90;;;;;;8385287;28;19960;-71
2022/12/10 07:30:23;;;;;;;;;;;-0.50;99.90;;;;;;8357053;28;19943;-71
2022/12/10 07:34:25;;;;;;;;;;;-0.50;99.90;;;;;;8377548;28;20390;-71
2022/12/10 07:38:27;;;;;;;;;;;-0.50;99.90;;;;;;8392360;28;19929;-71
2022/12/10 07:42:29;;;;;;;;;;;-0.50;99.90;;;;;;8385979;28;20435;-71
2022/12/10 07:46:31;;;;;;;;;;;-0.50;99.90;;;;;;8366213;28;20292;-71
2022/12/10 07:50:32;;;;;;;;;;;-0.50;99.90;;;;;;8385769;28;20019;-71
2022/12/10 07:54:34;;;;;;;;;;;-0.50;99.90;;;;;;8385787;28;20086;-71
2022/12/10 07:58:36;;;;;;;;;;;-0.50;99.90;;;;;;8385455;28;19928;-71
2022/12/10 08:02:37;;;;;;;;;;;-0.50;99.90;;;;;;8370911;28;20269;-71
2022/12/10 08:06:39;;;;;;;;;;;-0.50;99.90;;;;;;8390515;28;19947;-71
2022/12/10 08:10:41;;;;;;;;;;;-0.50;99.90;;;;;;8386862;28;20372;-71
2022/12/10 08:14:42;;;;;;;;;;;-0.50;99.90;;;;;;8377116;28;20292;-71
2022/12/10 08:18:44;;;;;;;;;;;-0.50;99.90;;;;;;8367582;28;19938;-71
2022/12/10 08:22:46;;;;;;;;;;;-0.50;99.90;;;;;;8390165;28;20300;-71
2022/12/10 08:26:47;;;;;;;;;;;-0.50;99.90;;;;;;8371461;28;19964;-71
2022/12/10 08:30:49;;;;;;;;;;;-0.50;99.90;;;;;;8359246;28;20016;-71
2022/12/10 08:34:51;;;;;;;;;;;-0.50;99.90;;;;;;8386884;28;19975;-71
2022/12/10 08:38:52;;;;;;;;;;;-0.60;99.90;;;;;;8386684;28;20295;-71
2022/12/10 08:42:54;;;;;;;;;;;-0.60;99.90;;;;;;8390154;28;19928;-71
2022/12/10 08:46:58;;;;;;;;;;;-0.60;99.90;;;;;;8386500;28;19928;-71
2022/12/10 08:50:59;;;;;;;;;;;-0.50;99.90;;;;;;8377098;28;19928;-71
2022/12/10 08:55:01;;;;;;;;;;;-0.60;99.90;;;;;;8393882;28;19925;-71
2022/12/10 08:59:02;;;;;;;;;;;-0.60;99.90;;;;;;8387483;28;20277;-71
2022/12/10 09:03:04;;;;;;;;;;;-0.60;99.90;;;;;;8384057;28;19932;-71
2022/12/10 09:07:06;;;;;;;;;;;-0.60;99.90;;;;;;8392145;28;19957;-71
2022/12/10 09:11:27;;;;;;;;;;;-0.50;99.90;;;;;;8395070;28;19968;-71
2022/12/10 09:15:28;;;;;;;;;;;-0.50;99.90;;;;;;8386122;28;19929;-71
2022/12/10 09:19:30;;;;;;;;;;;-0.50;99.90;;;;;;8377049;28;19935;-69
2022/12/10 09:23:31;;;;;;;;;;;-0.50;99.90;;;;;;8394232;28;19931;-68
2022/12/10 09:27:33;;;;;;;;;;;-0.50;99.90;;;;;;8393186;28;19932;-69
2022/12/10 09:31:35;;;;;;;;;;;-0.50;99.90;;;;;;8391896;28;19931;-69
2022/12/10 09:35:39;;;;;;;;;;;-0.50;99.90;;;;;;8379142;28;20372;-69
2022/12/10 09:39:40;;;;;;;;;;;-0.50;99.90;;;;;;8391220;28;19930;-69
2022/12/10 09:43:48;;;;;;;;;;;-0.50;99.90;;;;;;8381384;28;20027;-69
2022/12/10 09:48:02;;;;;;;;;;;-0.50;99.90;;;;;;8371757;28;19933;-69
2022/12/10 09:52:06;;;;;;;;;;;-0.40;99.90;;;;;;8375379;28;19931;-69
2022/12/10 09:56:14;;;;;;;;;;;-0.40;99.90;;;;;;8375426;28;19925;-69
2022/12/10 10:00:25;;;;;;;;;;;-0.40;99.90;;;;;;8357003;28;19924;-69
2022/12/10 10:04:27;;;;;;;;;;;-0.40;99.90;;;;;;8388846;28;19928;-69
2022/12/10 10:08:32;;;;;;;;;;;-0.30;99.90;;;;;;8387728;28;19931;-70
2022/12/10 10:12:34;;;;;;;;;;;-0.30;99.90;;;;;;8388981;28;20280;-69
2022/12/10 10:16:45;;;;;;;;;;;-0.30;99.90;;;;;;8374140;28;19975;-69
2022/12/10 10:20:47;;;;;;;;;;;-0.30;99.90;;;;;;8384998;28;19947;-69
2022/12/10 10:24:48;;;;;;;;;;;-0.30;99.90;;;;;;8397118;28;19978;-69
2022/12/10 10:28:54;;;;;;;;;;;-0.30;99.90;;;;;;8388327;28;19936;-69
2022/12/10 10:32:57;;;;;;;;;;;-0.30;99.90;;;;;;8405565;28;20360;-71
2022/12/10 10:37:00;;;;;;;;;;;-0.30;99.90;;;;;;8380577;28;19928;-71
2022/12/10 10:41:03;;;;;;;;;;;-0.20;99.90;;;;;;8384465;28;19931;-71
2022/12/10 10:45:25;;;;;;;;;;;-0.20;99.90;;;;;;8381791;28;19928;-71
2022/12/10 10:49:28;;;;;;;;;;;-0.20;99.90;;;;;;8373640;28;19968;-71
2022/12/10 10:53:42;;;;;;;;;;;-0.20;99.90;;;;;;8372379;28;20284;-71
2022/12/10 10:57:44;;;;;;;;;;;-0.20;99.90;;;;;;8379992;28;19937;-71
2022/12/10 11:01:46;;;;;;;;;;;-0.20;99.90;;;;;;8382427;28;19928;-71
2022/12/10 11:05:48;;;;;;;;;;;-0.20;99.90;;;;;;8388176;28;19924;-71
2022/12/10 11:09:50;;;;;;;;;;;-0.20;99.90;;;;;;8373370;28;19924;-71
2022/12/10 11:13:51;;;;;;;;;;;-0.20;99.90;;;;;;8397353;28;19924;-71
2022/12/10 11:17:54;;;;;;;;;;;-0.10;99.90;;;;;;8395826;28;19924;-71
2022/12/10 11:22:14;;;;;;;;;;;-0.20;99.90;;;;;;8396554;28;19924;-71
2022/12/10 11:26:19;;;;;;;;;;;-0.20;99.90;;;;;;8392957;28;20102;-71
2022/12/10 11:30:23;;;;;;;;;;;-0.20;99.90;;;;;;8394200;28;20306;-71
2022/12/10 11:34:36;;;;;;;;;;;-0.10;99.90;;;;;;8393596;28;19931;-71
2022/12/10 11:38:48;;;;;;;;;;;-0.10;99.90;;;;;;8371776;28;20283;-71
2022/12/10 11:42:52;;;;;;;;;;;0.00;99.90;;;;;;8396576;28;20364;-71
2022/12/10 11:47:19;;;;;;;;;;;0.00;99.90;;;;;;8390979;28;20403;-71
2022/12/10 11:51:30;;;;;;;;;;;-0.10;99.90;;;;;;8391280;28;19928;-71
2022/12/10 11:55:51;;;;;;;;;;;-0.10;99.90;;;;;;8377377;28;20005;-71
2022/12/10 12:00:11;;;;;;;;;;;-0.10;99.90;;;;;;8386915;28;19964;-71
2022/12/10 12:04:15;;;;;;;;;;;-0.10;99.90;;;;;;8388147;28;19925;-71
2022/12/10 12:08:17;;;;;;;;;;;0.00;99.90;;;;;;8388567;28;19928;-71
2022/12/10 12:12:21;;;;;;;;;;;0.00;99.90;;;;;;8397629;28;19924;-71
2022/12/10 12:16:29;;;;;;;;;;;0.10;99.90;;;;;;8395353;28;19943;-71
2022/12/10 12:20:40;;;;;;;;;;;0.10;99.90;;;;;;8396550;28;20532;-71
2022/12/10 12:24:45;;;;;;;;;;;0.10;99.90;;;;;;8378738;28;19951;-71
2022/12/10 12:28:49;;;;;;;;;;;0.20;99.90;;;;;;8388056;28;20274;-71
2022/12/10 12:33:03;;;;;;;;;;;0.20;99.90;;;;;;8373438;28;20257;-71
2022/12/10 12:37:07;;;;;;;;;;;0.20;99.90;;;;;;8387593;28;20367;-71
2022/12/10 12:41:29;;;;;;;;;;;0.30;99.90;;;;;;8389110;28;20075;-71
2022/12/10 12:45:40;;;;;;;;;;;0.20;99.90;;;;;;8374955;28;19964;-71
2022/12/10 12:49:42;;;;;;;;;;;0.20;99.90;;;;;;8390159;28;19935;-71
2022/12/10 13:04:25;;;;;;;;;;;0.10;99.90;;;;;;8391386;28;19960;-71
2022/12/10 13:08:29;;;;;;;;;;;0.10;99.90;;;;;;8397420;28;19932;-71
2022/12/10 13:12:31;;;;;;;;;;;0.10;99.90;;;;;;8371276;28;19933;-71
2022/12/10 13:16:33;;;;;;;;;;;0.10;99.90;;;;;;8373239;28;19925;-71
2022/12/10 13:20:41;;;;;;;;;;;0.20;99.90;;;;;;8389469;28;19924;-71
2022/12/10 13:24:45;;;;;;;;;;;0.20;99.90;;;;;;8378138;28;20350;-71
2022/12/10 13:28:51;;;;;;;;;;;0.20;99.90;;;;;;8386187;28;19924;-71
2022/12/10 13:33:00;;;;;;;;;;;0.20;99.90;;;;;;8386871;28;20355;-71
2022/12/10 13:37:01;;;;;;;;;;;0.20;99.90;;;;;;8382453;28;19970;-71
2022/12/10 13:45:27;;;;;;;;;;;0.20;99.90;;;;;;8388663;28;19955;-71
2022/12/10 13:49:29;;;;;;;;;;;0.20;99.90;;;;;;8376131;28;19963;-72
2022/12/10 13:53:51;;;;;;;;;;;0.20;99.90;;;;;;8373023;28;19939;-71
2022/12/10 13:57:56;;;;;;;;;;;0.20;99.90;;;;;;8373416;28;19933;-71
2022/12/10 14:17:14;;;;;;;;;;;0.20;99.90;;;;;;8378106;28;19932;-71
2022/12/10 14:21:16;;;;;;;;;;;0.20;99.90;;;;;;8365867;28;19924;-71
2022/12/10 14:25:21;;;;;;;;;;;0.20;99.90;;;;;;8377997;28;19938;-71
2022/12/10 14:29:23;;;;;;;;;;;0.30;99.90;;;;;;8367121;28;19931;-72
2022/12/10 14:33:30;;;;;;;;;;;0.30;99.90;;;;;;8379693;28;19936;-71
2022/12/10 14:37:34;;;;;;;;;;;0.30;99.90;;;;;;8364847;28;19933;-71
2022/12/10 14:41:36;;;;;;;;;;;0.30;99.90;;;;;;8389447;28;19932;-71
2022/12/10 14:45:53;;;;;;;;;;;0.30;99.90;;;;;;8372146;28;19935;-71
2022/12/10 14:49:55;;;;;;;;;;;0.40;99.90;;;;;;8379015;28;19924;-71
2022/12/10 14:53:56;;;;;;;;;;;0.40;99.90;;;;;;8378006;28;19932;-71
2022/12/10 14:58:00;;;;;;;;;;;0.40;99.90;;;;;;8378643;28;19954;-71
2022/12/10 15:02:04;;;;;;;;;;;0.40;99.90;;;;;;8333343;28;20167;-71
2022/12/10 15:06:07;;;;;;;;;;;0.40;99.90;;;;;;8348198;28;19976;-71
2022/12/10 15:10:19;;;;;;;;;;;0.40;99.90;;;;;;8345495;28;19933;-71
2022/12/10 15:14:22;;;;;;;;;;;0.40;99.90;;;;;;8356349;28;20400;-71
2022/12/10 15:18:30;;;;;;;;;;;0.50;99.90;;;;;;8380022;28;19924;-71
2022/12/10 15:22:32;;;;;;;;;;;0.50;99.90;;;;;;8359609;28;20299;-69
2022/12/10 15:26:41;;;;;;;;;;;0.50;99.90;;;;;;8380139;28;19925;-69
2022/12/10 15:30:47;;;;;;;;;;;0.50;99.90;;;;;;8389750;28;19924;-69
2022/12/10 15:34:52;;;;;;;;;;;0.50;99.90;;;;;;8389340;28;20402;-69
2022/12/10 15:38:53;;;;;;;;;;;0.50;99.90;;;;;;8382280;28;20272;-69
2022/12/10 15:42:59;;;;;;;;;;;0.50;99.90;;;;;;8371234;28;20383;-69
2022/12/10 15:47:21;;;;;;;;;;;0.50;99.90;;;;;;8384960;28;20534;-69
2022/12/10 15:51:23;;;;;;;;;;;0.50;99.90;;;;;;8371776;28;19929;-69
2022/12/10 15:55:25;;;;;;;;;;;0.50;99.90;;;;;;8396074;28;20379;-69
2022/12/10 15:59:26;;;;;;;;;;;0.50;99.90;;;;;;8355870;28;19928;-69
2022/12/10 16:03:28;;;;;;;;;;;0.50;99.90;;;;;;8345498;28;19968;-69
2022/12/10 16:07:32;;;;;;;;;;;0.60;99.90;;;;;;8360752;28;19976;-69
2022/12/10 16:11:34;;;;;;;;;;;0.60;99.90;;;;;;8360297;28;19932;-69
2022/12/10 16:15:57;;;;;;;;;;;0.50;99.90;;;;;;8364407;28;20059;-69
2022/12/10 16:20:00;;;;;;;;;;;0.60;99.90;;;;;;8349210;28;19995;-70
2022/12/10 16:24:02;;;;;;;;;;;0.50;99.90;;;;;;8350805;28;20372;-69
2022/12/10 16:28:04;;;;;;;;;;;0.50;99.90;;;;;;8348068;28;19929;-69
2022/12/10 16:32:05;;;;;;;;;;;0.50;99.90;;;;;;8351699;28;19932;-69
2022/12/10 16:36:07;;;;;;;;;;;0.50;99.90;;;;;;8363978;28;19932;-69
2022/12/10 16:40:10;;;;;;;;;;;0.50;99.90;;;;;;8358912;28;19932;-70
2022/12/10 16:44:12;;;;;;;;;;;0.50;99.90;;;;;;8359973;28;19983;-69
2022/12/10 16:48:14;;;;;;;;;;;0.50;99.90;;;;;;8344678;28;19932;-69
2022/12/10 16:52:15;;;;;;;;;;;0.50;99.90;;;;;;8359096;28;19935;-69
2022/12/10 16:56:17;;;;;;;;;;;0.50;99.90;;;;;;8353732;28;19925;-69
2022/12/10 17:00:21;;;;;;;;;;;0.50;99.90;;;;;;8355904;28;20440;-69
2022/12/10 17:04:22;;;;;;;;;;;0.50;99.90;;;;;;8333513;28;19924;-69
2022/12/10 17:08:24;;;;;;;;;;;0.60;99.90;;;;;;8330126;28;19943;-69
2022/12/10 17:12:29;;;;;;;;;;;0.60;99.90;;;;;;8337583;28;19925;-69
2022/12/10 17:16:31;;;;;;;;;;;0.60;99.90;;;;;;8353827;28;19936;-69
2022/12/10 17:20:33;;;;;;;;;;;0.60;99.90;;;;;;8351049;28;19933;-70
2022/12/10 17:24:35;;;;;;;;;;;0.70;99.90;;;;;;8343263;28;20002;-69
2022/12/10 17:28:37;;;;;;;;;;;0.70;99.90;;;;;;8358141;28;20376;-69
2022/12/10 17:32:39;;;;;;;;;;;0.70;99.90;;;;;;8363443;28;19932;-69
2022/12/10 17:36:41;;;;;;;;;;;0.70;99.90;;;;;;8356335;28;19971;-69
2022/12/10 17:40:43;;;;;;;;;;;0.70;99.90;;;;;;8360502;28;19928;-69
2022/12/10 17:44:48;;;;;;;;;;;0.70;99.90;;;;;;8357506;28;19925;-70
2022/12/10 17:48:50;;;;;;;;;;;0.70;99.90;;;;;;8338403;28;20002;-69
2022/12/10 17:57:58;;;;;;;;;;;0.80;99.90;;;;;;8363920;28;20383;-69
2022/12/10 18:01:59;;;;;;;;;;;0.80;99.90;;;;;;8356398;28;19955;-69
2022/12/10 18:06:02;;;;;;;;;;;0.80;99.90;;;;;;8354313;28;19968;-69
2022/12/10 18:10:06;;;;;;;;;;;0.80;99.90;;;;;;8337136;28;19968;-69
2022/12/10 18:14:09;;;;;;;;;;;0.80;99.90;;;;;;8356209;28;20206;-69
2022/12/10 18:18:11;;;;;;;;;;;0.80;99.90;;;;;;8357932;28;20188;-69
2022/12/10 18:22:12;;;;;;;;;;;0.70;99.90;;;;;;8355112;28;20015;-69
2022/12/10 18:26:16;;;;;;;;;;;0.80;99.90;;;;;;8355381;28;19925;-69
2022/12/10 18:30:20;;;;;;;;;;;0.80;99.90;;;;;;8342449;28;20019;-70
2022/12/10 18:34:22;;;;;;;;;;;0.70;99.90;;;;;;8335665;28;19947;-69
2022/12/10 18:38:23;;;;;;;;;;;0.80;99.90;;;;;;8340498;28;19925;-70
2022/12/10 18:42:25;;;;;;;;;;;0.80;99.90;;;;;;8359054;28;19992;-69
2022/12/10 18:46:27;;;;;;;;;;;0.80;99.90;;;;;;8355239;28;19925;-69
2022/12/10 18:50:29;;;;;;;;;;;0.80;99.90;;;;;;8357157;28;19947;-69
2022/12/10 18:54:31;;;;;;;;;;;0.80;99.90;;;;;;8361254;28;19935;-69
2022/12/10 18:58:33;;;;;;;;;;;0.80;99.90;;;;;;8356803;28;20296;-70
2022/12/10 19:02:34;;;;;;;;;;;0.80;99.90;;;;;;8356943;28;19931;-69
2022/12/10 19:06:37;;;;;;;;;;;0.80;99.90;;;;;;8338675;28;19931;-69
2022/12/10 19:10:39;;;;;;;;;;;0.80;99.90;;;;;;8339099;28;19939;-70
2022/12/10 19:14:40;;;;;;;;;;;0.80;99.90;;;;;;8356337;28;19929;-69
2022/12/10 19:18:44;;;;;;;;;;;0.80;99.90;;;;;;8355048;28;19925;-69
2022/12/10 19:22:45;;;;;;;;;;;0.80;99.90;;;;;;8344293;28;19943;-70
2022/12/10 19:26:47;;;;;;;;;;;0.90;99.90;;;;;;8357547;28;19924;-69
2022/12/10 19:30:49;;;;;;;;;;;0.90;99.90;;;;;;8338365;28;20301;-69
2022/12/10 19:34:51;;;;;;;;;;;0.90;99.90;;;;;;8348959;28;19932;-70
2022/12/10 19:38:53;;;;;;;;;;;0.90;99.90;;;;;;8355974;28;20031;-69
2022/12/10 19:42:55;;;;;;;;;;;0.90;99.90;;;;;;8343109;28;19982;-69
2022/12/10 19:46:57;;;;;;;;;;;0.90;99.90;;;;;;8352493;28;19925;-69
2022/12/10 19:50:58;;;;;;;;;;;1.00;99.90;;;;;;8346365;28;19929;-69
2022/12/10 19:55:00;;;;;;;;;;;1.00;99.90;;;;;;8343768;28;20534;-69
2022/12/10 19:59:03;;;;;;;;;;;1.00;99.90;;;;;;8353531;28;19948;-70
2022/12/10 20:03:10;;;;;;;;;;;1.00;99.90;;;;;;8377386;28;19967;-69
2022/12/10 20:07:12;;;;;;;;;;;1.00;99.90;;;;;;8363957;28;19947;-70
2022/12/10 20:11:13;;;;;;;;;;;1.10;99.90;;;;;;8361553;28;19987;-70
2022/12/10 20:15:15;;;;;;;;;;;1.10;99.90;;;;;;8357778;28;19929;-70
2022/12/10 20:19:20;;;;;;;;;;;1.10;99.90;;;;;;8359916;28;19964;-70
2022/12/10 20:23:21;;;;;;;;;;;1.10;99.90;;;;;;8355995;28;20015;-70
2022/12/10 20:27:23;;;;;;;;;;;1.10;99.90;;;;;;8367050;28;19971;-69
2022/12/10 20:31:25;;;;;;;;;;;1.10;99.90;;;;;;8361744;28;19924;-70
2022/12/10 20:35:28;;;;;;;;;;;1.10;99.90;;;;;;8363790;28;19935;-70
2022/12/10 20:39:32;;;;;;;;;;;1.20;99.90;;;;;;8363070;28;19930;-69
2022/12/10 20:43:34;;;;;;;;;;;1.20;99.90;;;;;;8342232;28;20442;-70
2022/12/10 20:47:35;;;;;;;;;;;1.20;99.90;;;;;;8346326;28;19928;-70
2022/12/10 20:51:40;;;;;;;;;;;1.20;99.90;;;;;;8342078;28;20257;-70
2022/12/10 20:55:41;;;;;;;;;;;1.20;99.90;;;;;;8358728;28;20027;-70
2022/12/10 20:59:43;;;;;;;;;;;1.30;99.90;;;;;;8358326;28;19947;-70
2022/12/10 21:03:47;;;;;;;;;;;1.30;99.90;;;;;;8339011;28;19963;-70
2022/12/10 21:07:48;;;;;;;;;;;1.30;99.90;;;;;;8342440;28;19935;-70
2022/12/10 21:11:50;;;;;;;;;;;1.30;99.90;;;;;;8360799;28;19924;-70
2022/12/10 21:15:53;;;;;;;;;;;1.30;99.90;;;;;;8343286;28;20027;-70
2022/12/10 21:19:55;;;;;;;;;;;1.30;99.90;;;;;;8377854;28;19935;-70
2022/12/10 21:23:57;;;;;;;;;;;1.30;99.90;;;;;;8343374;28;19936;-70
2022/12/10 21:27:58;;;;;;;;;;;1.30;99.90;;;;;;8341394;28;19979;-70
2022/12/10 21:32:00;;;;;;;;;;;1.30;99.90;;;;;;8361393;28;20334;-70
2022/12/10 21:36:02;;;;;;;;;;;1.30;99.90;;;;;;8361595;28;19972;-70
2022/12/10 21:40:04;;;;;;;;;;;1.30;99.90;;;;;;8357116;28;19925;-70
2022/12/10 21:44:05;;;;;;;;;;;1.30;99.90;;;;;;8355952;28;19925;-70
2022/12/10 21:48:07;;;;;;;;;;;1.30;99.90;;;;;;8358257;28;19975;-70
2022/12/10 21:52:08;;;;;;;;;;;1.40;99.90;;;;;;8364021;28;20379;-70
2022/12/10 21:56:11;;;;;;;;;;;1.40;99.90;;;;;;8356220;28;19925;-70
2022/12/10 22:00:13;;;;;;;;;;;1.40;99.90;;;;;;8359399;28;20292;-70
2022/12/10 22:04:14;;;;;;;;;;;1.40;99.90;;;;;;8379276;28;20403;-70
2022/12/10 22:08:18;;;;;;;;;;;1.40;99.90;;;;;;8378102;28;19994;-70
2022/12/10 22:12:20;;;;;;;;;;;1.40;99.90;;;;;;8381969;28;19932;-70
2022/12/10 22:16:21;;;;;;;;;;;1.40;99.90;;;;;;8389898;28;19925;-70
2022/12/10 22:25:27;;;;;;;;;;;1.40;99.90;;;;;;8379180;28;20326;-70
2022/12/10 22:29:28;;;;;;;;;;;1.50;99.90;;;;;;8373724;28;19935;-70
2022/12/10 22:33:30;;;;;;;;;;;1.50;99.90;;;;;;8371047;28;19924;-70
2022/12/10 22:37:31;;;;;;;;;;;1.50;99.90;;;;;;8380587;28;20413;-70
2022/12/10 22:41:33;;;;;;;;;;;1.50;99.90;;;;;;8378351;28;19928;-70
2022/12/10 22:45:38;;;;;;;;;;;1.50;99.90;;;;;;8384768;28;20277;-70
2022/12/10 22:49:40;;;;;;;;;;;1.50;99.90;;;;;;8388300;28;19956;-70
2022/12/10 22:53:41;;;;;;;;;;;1.50;99.90;;;;;;8369741;28;19971;-70
2022/12/10 23:07:50;;;;;;;;;;;1.50;99.90;;;;;;8382456;28;20387;-70
2022/12/10 23:16:13;;;;;;;;;;;1.50;99.90;;;;;;8380071;28;20320;-70
2022/12/10 23:20:15;;;;;;;;;;;1.50;99.90;;;;;;8370137;28;20504;-70
2022/12/10 23:24:18;;;;;;;;;;;1.60;99.90;;;;;;8389327;28;19931;-70
2022/12/10 23:28:19;;;;;;;;;;;1.60;99.90;;;;;;8375615;28;19963;-70
2022/12/10 23:32:21;;;;;;;;;;;1.60;99.90;;;;;;8396150;28;20011;-70
2022/12/10 23:36:23;;;;;;;;;;;1.60;99.90;;;;;;8391569;28;20392;-70
2022/12/10 23:40:25;;;;;;;;;;;1.60;99.90;;;;;;8380785;28;19931;-70
2022/12/10 23:44:26;;;;;;;;;;;1.60;99.90;;;;;;8387844;28;20424;-70
2022/12/10 23:48:28;;;;;;;;;;;1.60;99.90;;;;;;8385446;28;19970;-70
2022/12/10 23:52:30;;;;;;;;;;;1.70;99.90;;;;;;8375965;28;19932;-70
2022/12/10 23:56:31;;;;;;;;;;;1.70;99.90;;;;;;8392534;28;19932;-70
